Time;durP1;ratioP1;P1;durP2;ratioP2;P2;SDS_P1;SDS_P2;PMS_P1;PMS_P2;Temp;Humidity;BMP_temperature;BMP_pressure;BME280_temperature;BME280_humidity;BME280_pressure;Samples;Min_cycle;Max_cycle;Signal;HPM_P1;HPM_P2
2020/12/16 00:01:18;;;;;;;0.25;0.25;;;;;;;0.32;100.00;101804.31;1700724;84;21170;-52
2020/12/16 00:03:45;;;;;;;0.98;0.98;;;;;;;0.31;100.00;101812.03;1701000;84;21130;-52
2020/12/16 00:06:15;;;;;;;0.10;0.10;;;;;;;0.31;100.00;101813.37;1692449;84;21150;-51
2020/12/16 00:08:43;;;;;;;1.10;0.30;;;;;;;0.30;100.00;101814.92;1719221;83;21131;-52
2020/12/16 00:11:11;;;;;;;0.17;0.17;;;;;;;0.30;100.00;101813.06;1723125;83;21174;-52
2020/12/16 00:13:38;;;;;;;0.82;0.57;;;;;;;0.29;100.00;101811.37;1722120;83;21190;-52
2020/12/16 00:16:08;;;;;;;0.28;0.28;;;;;;;0.28;100.00;101812.39;1732583;82;21173;-54
2020/12/16 00:18:35;;;;;;;1.22;1.22;;;;;;;0.29;100.00;101817.26;1732576;82;21563;-55
2020/12/16 00:21:03;;;;;;;0.10;0.10;;;;;;;0.29;100.00;101822.12;1732682;82;21153;-54
2020/12/16 00:23:31;;;;;;;0.62;0.62;;;;;;;0.29;100.00;101818.09;1732805;82;21134;-55
2020/12/16 00:25:58;;;;;;;0.15;0.15;;;;;;;0.29;100.00;101818.60;1732432;81;21221;-55
2020/12/16 00:28:26;;;;;;;0.20;0.20;;;;;;;0.28;100.00;101819.12;1732734;82;21449;-54
2020/12/16 00:30:53;;;;;;;0.13;0.13;;;;;;;0.28;100.00;101825.84;1732571;82;21312;-55
2020/12/16 00:33:21;;;;;;;0.00;0.00;;;;;;;0.27;100.00;101824.15;1732686;82;21102;-55
2020/12/16 00:35:49;;;;;;;0.33;0.33;;;;;;;0.28;100.00;101825.84;1732648;82;21174;-55
2020/12/16 00:38:16;;;;;;;4.85;2.05;;;;;;;0.29;100.00;101824.81;1732674;82;21114;-54
2020/12/16 00:40:45;;;;;;;1.10;1.07;;;;;;;0.30;100.00;101824.33;1732590;82;21138;-54
2020/12/16 00:43:12;;;;;;;0.90;0.90;;;;;;;0.28;100.00;101828.53;1732848;82;21111;-54
2020/12/16 00:45:40;;;;;;;0.10;0.10;;;;;;;0.29;100.00;101825.33;1732695;82;21202;-52
2020/12/16 00:48:07;;;;;;;1.12;1.10;;;;;;;0.28;100.00;101823.16;1732728;82;21178;-52
2020/12/16 00:50:35;;;;;;;0.00;0.00;;;;;;;0.28;100.00;101822.32;1732581;82;21523;-52
2020/12/16 00:53:05;;;;;;;0.20;0.20;;;;;;;0.29;100.00;101819.44;1732649;82;21134;-54
2020/12/16 00:55:34;;;;;;;0.85;0.82;;;;;;;0.31;100.00;101821.95;1731879;82;21185;-54
2020/12/16 00:58:02;;;;;;;0.28;0.28;;;;;;;0.30;100.00;101821.13;1732751;82;21417;-54
2020/12/16 01:00:32;;;;;;;0.05;0.05;;;;;;;0.29;100.00;101816.75;1732818;82;21547;-54
2020/12/16 01:03:01;;;;;;;0.47;0.47;;;;;;;0.30;100.00;101813.06;1732441;82;21138;-55
2020/12/16 01:05:30;;;;;;;0.03;0.03;;;;;;;0.29;100.00;101808.68;1732611;82;21110;-55
2020/12/16 01:07:58;;;;;;;0.55;0.55;;;;;;;0.29;100.00;101812.71;1732640;82;21118;-54
2020/12/16 01:10:25;;;;;;;0.53;0.53;;;;;;;0.29;100.00;101807.84;1732701;82;21098;-54
2020/12/16 01:12:53;;;;;;;0.10;0.10;;;;;;;0.28;100.00;101809.70;1732621;82;21564;-54
2020/12/16 01:15:23;;;;;;;0.15;0.15;;;;;;;0.28;100.00;101809.70;1730496;82;21142;-54
2020/12/16 01:17:59;;;;;;;0.00;0.00;;;;;;;0.29;100.00;101810.53;1732373;82;21173;-54
2020/12/16 01:20:40;;;;;;;2.22;0.85;;;;;;;0.26;100.00;101807.70;1732800;82;21118;-54
2020/12/16 01:23:24;;;;;;;2.33;0.50;;;;;;;0.29;100.00;101805.98;1827033;76;28957;-52
2020/12/16 01:25:54;;;;;;;0.10;0.10;;;;;;;0.26;100.00;101813.08;1755371;80;21210;-52
2020/12/16 01:28:21;;;;;;;0.10;0.10;;;;;;;0.26;100.00;101813.59;1784526;80;21627;-52
2020/12/16 01:30:53;;;;;;;0.10;0.10;;;;;;;0.25;100.00;101809.20;1784118;80;21241;-52
2020/12/16 01:33:21;;;;;;;0.00;0.00;;;;;;;0.25;100.00;101814.59;1797344;78;21097;-52
2020/12/16 01:35:50;;;;;;;2.05;0.45;;;;;;;0.24;100.00;101818.30;1816452;78;21290;-52
2020/12/16 01:38:18;;;;;;;0.20;0.20;;;;;;;0.21;100.00;101815.47;1818557;78;21409;-52
2020/12/16 01:40:47;;;;;;;0.10;0.10;;;;;;;0.18;100.00;101809.11;1826180;77;21138;-52
2020/12/16 01:43:14;;;;;;;0.05;0.05;;;;;;;0.18;100.00;101817.17;1760201;79;21133;-52
2020/12/16 01:45:43;;;;;;;0.50;0.50;;;;;;;0.18;100.00;101819.34;1786158;80;21524;-52
2020/12/16 01:48:11;;;;;;;0.30;0.30;;;;;;;0.19;100.00;101814.80;1786144;80;21437;-52
2020/12/16 01:50:38;;;;;;;0.47;0.47;;;;;;;0.20;100.00;101816.49;1786104;80;21559;-52
2020/12/16 01:53:07;;;;;;;0.10;0.10;;;;;;;0.22;100.00;101813.09;1806619;78;21524;-52
2020/12/16 01:55:40;;;;;;;1.95;0.62;;;;;;;0.20;100.00;101814.63;1788275;78;21150;-52
2020/12/16 01:58:09;;;;;;;0.00;0.00;;;;;;;0.20;100.00;101824.05;1786653;78;21827;-52
2020/12/16 02:00:38;;;;;;;1.02;0.40;;;;;;;0.19;100.00;101826.37;1784797;80;21110;-52
2020/12/16 02:03:08;;;;;;;0.75;0.53;;;;;;;0.17;100.00;101824.41;1788070;78;21141;-52
2020/12/16 02:05:51;;;;;;;0.65;0.50;;;;;;;0.20;100.00;101824.05;1843279;76;29001;-52
2020/12/16 02:08:20;;;;;;;0.40;0.40;;;;;;;0.17;100.00;101826.23;1752899;80;21661;-52
2020/12/16 02:10:48;;;;;;;0.10;0.10;;;;;;;0.17;100.00;101826.23;1785912;78;21141;-52
2020/12/16 02:13:16;;;;;;;0.68;0.65;;;;;;;0.20;100.00;101827.24;1785798;80;21114;-52
2020/12/16 02:15:45;;;;;;;0.03;0.03;;;;;;;0.20;100.00;101825.91;1785833;78;21121;-52
2020/12/16 02:18:14;;;;;;;0.62;0.62;;;;;;;0.18;100.00;101827.41;1786052;80;21095;-52
2020/12/16 02:20:42;;;;;;;0.40;0.40;;;;;;;0.18;100.00;101827.92;1752165;78;21115;-52
2020/12/16 02:23:10;;;;;;;0.42;0.30;;;;;;;0.17;100.00;101820.85;1785957;80;21456;-52
2020/12/16 02:25:40;;;;;;;0.13;0.13;;;;;;;0.15;100.00;101829.11;1730129;78;21130;-52
2020/12/16 02:28:08;;;;;;;0.10;0.10;;;;;;;0.17;100.00;101830.27;1752466;80;21158;-52
2020/12/16 02:30:38;;;;;;;0.53;0.53;;;;;;;0.16;100.00;101824.56;1785944;78;21130;-52
2020/12/16 02:33:20;;;;;;;0.10;0.10;;;;;;;0.20;100.00;101827.24;1887680;76;29125;-52
2020/12/16 02:35:56;;;;;;;0.60;0.60;;;;;;;0.18;100.00;101830.61;1852142;77;21537;-52
2020/12/16 02:38:25;;;;;;;0.45;0.45;;;;;;;0.18;100.00;101830.61;1824095;78;21115;-52
2020/12/16 02:40:53;;;;;;;1.55;0.62;;;;;;;0.17;100.00;101823.55;1821166;78;21221;-52
2020/12/16 02:43:21;;;;;;;0.15;0.15;;;;;;;0.16;100.00;101827.25;1820775;78;21548;-52
2020/12/16 02:45:48;;;;;;;0.62;0.30;;;;;;;0.15;100.00;101833.66;1820804;78;21102;-51
2020/12/16 02:48:18;;;;;;;0.10;0.10;;;;;;;0.15;100.00;101833.66;1820698;78;21111;-52
2020/12/16 02:50:46;;;;;;;0.30;0.30;;;;;;;0.16;100.00;101832.63;1820829;77;21119;-52
2020/12/16 02:53:14;;;;;;;0.00;0.00;;;;;;;0.15;100.00;101836.34;1820843;78;21593;-52
2020/12/16 02:56:05;;;;;;;0.30;0.30;;;;;;;0.16;100.00;101828.09;1879439;76;29076;-52
2020/12/16 02:58:35;;;;;;;0.33;0.33;;;;;;;0.12;100.00;101836.16;1821998;78;21114;-52
2020/12/16 03:01:02;;;;;;;0.15;0.15;;;;;;;0.13;100.00;101837.03;1763876;78;21533;-52
2020/12/16 03:03:48;;;;;;;0.65;0.65;;;;;;;0.10;100.00;101836.02;1820768;78;21141;-51
2020/12/16 03:06:37;;;;;;;0.00;0.00;;;;;;;0.09;100.00;101835.18;1832095;76;29135;-52
2020/12/16 03:09:06;;;;;;;0.13;0.13;;;;;;;0.05;100.00;101843.77;1785748;80;21114;-52
2020/12/16 03:11:35;;;;;;;0.20;0.20;;;;;;;0.03;100.00;101844.48;1755345;80;21141;-52
2020/12/16 03:14:03;;;;;;;0.10;0.10;;;;;;;-0.02;100.00;101841.80;1785744;80;21576;-52
2020/12/16 03:16:31;;;;;;;0.15;0.15;;;;;;;-0.04;100.00;101841.13;1785810;78;21142;-52
2020/12/16 03:19:01;;;;;;;0.88;0.55;;;;;;;-0.03;100.00;101842.80;1783650;80;21082;-52
2020/12/16 03:21:29;;;;;;;0.50;0.45;;;;;;;0.00;100.00;101842.98;1785908;78;21666;-52
2020/12/16 03:24:01;;;;;;;0.35;0.20;;;;;;;0.01;100.00;101839.78;1781524;80;21623;-52
2020/12/16 03:26:47;;;;;;;0.10;0.10;;;;;;;0.03;99.98;101833.73;1785927;80;21166;-52
2020/12/16 03:29:16;;;;;;;4.15;1.15;;;;;;;0.03;99.99;101834.55;1781423;80;21410;-52
2020/12/16 03:31:51;;;;;;;0.08;0.08;;;;;;;0.03;99.93;101829.70;1784393;80;21133;-52
2020/12/16 03:34:38;;;;;;;0.47;0.47;;;;;;;0.07;99.95;101823.77;1848346;75;29049;-52
2020/12/16 03:37:08;;;;;;;0.40;0.40;;;;;;;0.03;99.94;101819.77;1815412;78;21555;-52
2020/12/16 03:39:37;;;;;;;4.05;0.85;;;;;;;0.02;99.95;101821.28;1818348;78;21141;-52
2020/12/16 03:42:06;;;;;;;0.30;0.30;;;;;;;0.02;100.00;101822.63;1818335;78;21118;-52
2020/12/16 03:44:34;;;;;;;0.08;0.08;;;;;;;0.02;100.00;101819.42;1813958;78;21134;-52
2020/12/16 03:47:02;;;;;;;0.00;0.00;;;;;;;0.04;99.98;101823.30;1786096;80;21141;-52
2020/12/16 03:49:30;;;;;;;0.10;0.10;;;;;;;0.06;99.99;101816.73;1786136;80;21571;-52
2020/12/16 03:51:58;;;;;;;0.00;0.00;;;;;;;0.07;99.94;101821.59;1786122;80;21137;-52
2020/12/16 03:54:29;;;;;;;2.27;1.60;;;;;;;0.06;99.92;101811.35;1782084;80;21121;-52
2020/12/16 03:57:04;;;;;;;1.27;0.50;;;;;;;0.07;99.87;101822.94;1783563;80;21536;-52
2020/12/16 03:59:50;;;;;;;0.30;0.30;;;;;;;0.06;99.76;101823.45;1786152;80;21574;-52
2020/12/16 04:02:32;;;;;;;0.10;0.10;;;;;;;0.06;99.75;101822.10;1820209;76;29115;-52
2020/12/16 04:05:07;;;;;;;0.13;0.13;;;;;;;0.01;99.78;101830.37;1785149;80;21134;-52
2020/12/16 04:07:35;;;;;;;0.10;0.10;;;;;;;-0.01;99.86;101831.36;1785861;80;21153;-52
2020/12/16 04:10:05;;;;;;;0.55;0.55;;;;;;;-0.02;99.85;101828.36;1783943;80;21141;-52
2020/12/16 04:12:33;;;;;;;0.20;0.20;;;;;;;-0.03;99.91;101822.64;1786017;80;21197;-52
2020/12/16 04:15:00;;;;;;;0.05;0.05;;;;;;;-0.04;99.91;101830.37;1785810;80;21117;-52
2020/12/16 04:17:32;;;;;;;2.00;0.50;;;;;;;-0.05;99.96;101823.34;1785905;80;21082;-52
2020/12/16 04:20:09;;;;;;;1.22;0.65;;;;;;;-0.04;100.00;101828.20;1785829;80;21130;-54
2020/12/16 04:22:38;;;;;;;0.30;0.30;;;;;;;-0.05;100.00;101831.41;1785249;80;21142;-54
2020/12/16 04:25:06;;;;;;;0.40;0.40;;;;;;;-0.07;100.00;101830.73;1755671;80;21153;-54
2020/12/16 04:27:34;;;;;;;0.10;0.10;;;;;;;-0.09;100.00;101835.96;1786063;80;21090;-54
2020/12/16 04:30:03;;;;;;;0.05;0.05;;;;;;;-0.10;100.00;101833.78;1786219;80;21591;-54
2020/12/16 04:32:35;;;;;;;0.33;0.33;;;;;;;-0.08;100.00;101838.45;1786071;80;21615;-55
2020/12/16 04:35:02;;;;;;;0.08;0.08;;;;;;;-0.07;100.00;101844.69;1754100;80;21122;-54
2020/12/16 04:37:31;;;;;;;0.10;0.10;;;;;;;-0.06;100.00;101845.84;1755715;80;21531;-54
2020/12/16 04:40:00;;;;;;;0.03;0.03;;;;;;;-0.04;100.00;101845.16;1786168;80;21139;-54
2020/12/16 04:42:27;;;;;;;0.10;0.10;;;;;;;-0.04;100.00;101849.19;1755690;80;21101;-54
2020/12/16 04:44:56;;;;;;;0.30;0.30;;;;;;;-0.06;100.00;101843.15;1786114;80;21612;-54
2020/12/16 04:47:25;;;;;;;0.55;0.45;;;;;;;-0.08;100.00;101845.17;1786260;80;21146;-54
2020/12/16 04:49:54;;;;;;;0.10;0.10;;;;;;;-0.10;100.00;101850.39;1785291;80;21173;-54
2020/12/16 04:52:23;;;;;;;0.20;0.20;;;;;;;-0.13;100.00;101847.55;1755410;80;21459;-54
2020/12/16 04:54:53;;;;;;;0.00;0.00;;;;;;;-0.15;100.00;101848.22;1781712;80;21122;-54
2020/12/16 04:57:22;;;;;;;0.23;0.23;;;;;;;-0.16;100.00;101851.94;1785980;80;21575;-54
2020/12/16 04:59:55;;;;;;;0.20;0.20;;;;;;;-0.16;100.00;101850.59;1755793;80;21118;-54
2020/12/16 05:02:25;;;;;;;0.10;0.10;;;;;;;-0.16;100.00;101845.22;1781571;78;21572;-54
2020/12/16 05:05:03;;;;;;;0.37;0.37;;;;;;;-0.16;100.00;101849.24;1784969;80;21119;-54
2020/12/16 05:07:31;;;;;;;1.98;0.75;;;;;;;-0.18;100.00;101852.61;1786058;78;21122;-54
2020/12/16 05:09:59;;;;;;;0.00;0.00;;;;;;;-0.19;100.00;101851.45;1786161;80;21106;-54
2020/12/16 05:12:27;;;;;;;0.17;0.17;;;;;;;-0.21;100.00;101855.65;1785680;78;21477;-54
2020/12/16 05:14:54;;;;;;;0.20;0.20;;;;;;;-0.23;100.00;101857.66;1785564;80;21110;-54
2020/12/16 05:17:22;;;;;;;0.00;0.00;;;;;;;-0.24;100.00;101858.69;1785458;79;21165;-54
2020/12/16 05:20:08;;;;;;;0.10;0.10;;;;;;;-0.25;100.00;101859.68;1785387;80;21111;-54
2020/12/16 05:22:36;;;;;;;0.42;0.42;;;;;;;-0.25;100.00;101859.68;1780770;80;21175;-55
2020/12/16 05:25:03;;;;;;;0.00;0.00;;;;;;;-0.23;100.00;101860.35;1785584;80;21512;-54
2020/12/16 05:27:32;;;;;;;0.45;0.33;;;;;;;-0.21;100.00;101858.33;1785493;80;21153;-54
2020/12/16 05:30:05;;;;;;;0.10;0.10;;;;;;;-0.19;100.00;101864.37;1786513;79;21106;-54
2020/12/16 05:32:34;;;;;;;0.10;0.10;;;;;;;-0.17;100.00;101862.36;1785459;78;21537;-54
2020/12/16 05:35:24;;;;;;;0.42;0.42;;;;;;;-0.18;100.00;101861.18;1784773;80;21122;-54
2020/12/16 05:38:01;;;;;;;0.10;0.10;;;;;;;-0.19;100.00;101862.20;1782347;80;21564;-54
2020/12/16 05:40:30;;;;;;;1.65;0.93;;;;;;;-0.19;100.00;101863.03;1757640;80;21130;-54
2020/12/16 05:42:57;;;;;;;0.25;0.25;;;;;;;-0.20;100.00;101866.72;1785366;80;21671;-54
2020/12/16 05:45:28;;;;;;;0.60;0.50;;;;;;;-0.23;100.00;101866.55;1785506;80;21126;-54
2020/12/16 05:48:11;;;;;;;2.60;1.27;;;;;;;-0.24;100.00;101870.27;1785389;80;21129;-55
2020/12/16 05:50:41;;;;;;;;;;;;;;;-0.26;100.00;101869.59;1787941;80;21177;-54
2020/12/16 05:53:21;;;;;;;0.10;0.10;;;;;;;-0.28;100.00;101866.75;1785352;80;20296;-54
2020/12/16 05:56:02;;;;;;;0.20;0.20;;;;;;;-0.32;100.00;101867.62;1766193;80;21231;-54
2020/12/16 05:58:32;;;;;;;0.17;0.17;;;;;;;-0.34;100.00;101871.48;1780224;80;21371;-52
2020/12/16 06:01:05;;;;;;;0.00;0.00;;;;;;;-0.34;100.00;101868.80;1785017;80;21768;-52
2020/12/16 06:03:38;;;;;;;;;;;;;;;-0.31;100.00;101869.80;1785348;80;21213;-54
2020/12/16 06:06:07;;;;;;;;;;;;;;;-0.30;100.00;101879.52;1787786;80;20262;-54
2020/12/16 06:08:41;;;;;;;0.03;0.03;;;;;;;-0.30;100.00;101884.89;1781829;80;20260;-54
2020/12/16 06:11:13;;;;;;;0.10;0.10;;;;;;;-0.30;100.00;101890.26;1778044;79;21129;-54
2020/12/16 06:13:46;;;;;;;;;;;;;;;-0.32;100.00;101887.77;1784296;80;21437;-54
2020/12/16 06:16:13;;;;;;;0.00;0.00;;;;;;;-0.33;100.00;101890.09;1782692;80;20295;-54
2020/12/16 06:18:44;;;;;;;0.10;0.10;;;;;;;-0.33;100.00;101891.44;1784549;80;21123;-54
2020/12/16 06:21:12;;;;;;;1.35;0.23;;;;;;;-0.32;100.00;101896.30;1782527;78;21552;-54
2020/12/16 06:23:44;;;;;;;0.20;0.20;;;;;;;-0.32;100.00;101901.20;1753840;81;21607;-54
2020/12/16 06:26:17;;;;;;;0.30;0.30;;;;;;;-0.28;100.00;101894.96;1754337;80;21466;-54
2020/12/16 06:28:45;;;;;;;1.35;1.25;;;;;;;-0.26;100.00;101892.44;1754033;81;21173;-54
2020/12/16 06:31:31;;;;;;;0.30;0.30;;;;;;;-0.24;100.00;101901.16;1757877;80;21185;-54
2020/12/16 06:34:12;;;;;;;0.17;0.13;;;;;;;-0.20;100.00;101905.67;1760718;80;21138;-54
2020/12/16 06:36:41;;;;;;;0.50;0.50;;;;;;;-0.17;100.00;101900.45;1782803;80;21113;-54
2020/12/16 06:42:01;;;;;;;0.10;0.10;;;;;;;-0.08;100.00;101912.34;1824087;76;29517;-52
2020/12/16 06:44:29;;;;;;;0.88;0.35;;;;;;;-0.09;100.00;101909.34;1783171;80;21130;-52
2020/12/16 06:46:56;;;;;;;0.60;0.60;;;;;;;-0.06;100.00;101913.53;1785732;80;21666;-52
2020/12/16 06:49:31;;;;;;;0.62;0.53;;;;;;;-0.04;100.00;101911.00;1785705;80;21588;-52
2020/12/16 06:52:12;;;;;;;1.55;0.40;;;;;;;-0.02;100.00;101912.19;1754748;81;21125;-53
2020/12/16 06:54:47;;;;;;;0.50;0.50;;;;;;;0.01;100.00;101915.03;1754684;81;21114;-53
2020/12/16 06:57:25;;;;;;;0.00;0.00;;;;;;;0.01;100.00;101913.69;1756865;80;21125;-53
2020/12/16 07:00:00;;;;;;;1.35;0.80;;;;;;;0.00;100.00;101914.20;1768615;80;21323;-53
2020/12/16 07:02:35;;;;;;;0.05;0.05;;;;;;;0.00;100.00;101914.20;1755196;80;21150;-53
2020/12/16 07:05:05;;;;;;;2.50;0.42;;;;;;;0.02;100.00;101914.00;1754723;81;22050;-53
2020/12/16 07:07:44;;;;;;;0.93;0.50;;;;;;;0.02;100.00;101909.46;1774323;80;21565;-53
2020/12/16 07:10:37;;;;;;;0.10;0.10;;;;;;;0.02;100.00;101908.63;1768258;80;21110;-53
2020/12/16 07:13:22;;;;;;;0.28;0.28;;;;;;;0.02;100.00;101916.70;1756682;80;21536;-53
2020/12/16 07:15:57;;;;;;;0.20;0.20;;;;;;;0.03;100.00;101923.25;1756849;80;21150;-53
2020/12/16 07:18:42;;;;;;;0.45;0.40;;;;;;;0.04;100.00;101922.73;1754912;80;21149;-53
2020/12/16 07:21:19;;;;;;;0.13;0.13;;;;;;;0.04;100.00;101924.08;1754808;80;21153;-53
2020/12/16 07:24:09;;;;;;;0.55;0.55;;;;;;;0.04;100.00;101924.08;1754681;81;21110;-53
2020/12/16 07:26:50;;;;;;;0.00;0.00;;;;;;;0.05;100.00;101924.40;1758142;80;21153;-53
2020/12/16 07:29:31;;;;;;;0.10;0.10;;;;;;;0.06;100.00;101928.27;1782238;80;21114;-53
2020/12/16 07:32:08;;;;;;;0.00;0.00;;;;;;;0.06;100.00;101924.75;1756923;80;21109;-53
2020/12/16 07:34:55;;;;;;;0.00;0.00;;;;;;;0.05;100.00;101932.47;1772390;80;21161;-53
2020/12/16 07:37:27;;;;;;;0.33;0.33;;;;;;;0.05;100.00;101930.64;1783925;80;21518;-53
2020/12/16 07:40:00;;;;;;;1.02;0.40;;;;;;;0.05;100.00;101936.02;1776562;80;21638;-53
2020/12/16 07:42:29;;;;;;;0.15;0.15;;;;;;;0.06;100.00;101932.81;1783382;79;21129;-53
2020/12/16 07:44:58;;;;;;;0.05;0.05;;;;;;;0.07;100.00;101936.66;1777462;79;21114;-53
2020/12/16 07:47:26;;;;;;;0.65;0.20;;;;;;;0.09;100.00;101942.70;1779361;79;21114;-53
2020/12/16 07:49:54;;;;;;;0.00;0.00;;;;;;;0.11;100.00;101938.50;1793420;79;21110;-53
2020/12/16 07:52:26;;;;;;;3.45;1.92;;;;;;;0.11;100.00;101940.68;1787587;79;21176;-53
2020/12/16 07:54:58;;;;;;;1.42;1.32;;;;;;;0.13;100.00;101944.55;1767150;79;21149;-53
2020/12/16 07:57:34;;;;;;;0.57;0.53;;;;;;;0.14;100.00;101939.49;1779025;79;21141;-53
2020/12/16 08:00:03;;;;;;;0.45;0.45;;;;;;;0.14;100.00;101944.88;1769605;79;21638;-53
2020/12/16 08:02:34;;;;;;;1.07;1.00;;;;;;;0.11;100.00;101950.60;1793684;79;21579;-53
2020/12/16 08:05:03;;;;;;;0.10;0.10;;;;;;;0.08;100.00;101948.27;1781386;79;21158;-53
2020/12/16 08:07:32;;;;;;;0.60;0.60;;;;;;;0.05;100.00;101944.08;1794348;79;21157;-53
2020/12/16 08:10:03;;;;;;;0.10;0.10;;;;;;;0.07;100.00;101949.27;1772782;79;21113;-53
2020/12/16 08:12:40;;;;;;;0.47;0.47;;;;;;;0.06;100.00;101947.59;1762796;81;21177;-53
2020/12/16 08:15:19;;;;;;;1.35;0.78;;;;;;;0.04;100.00;101945.58;1768938;79;21137;-53
2020/12/16 08:17:48;;;;;;;0.20;0.20;;;;;;;0.01;100.00;101947.28;1785737;79;21153;-53
2020/12/16 08:20:21;;;;;;;0.10;0.10;;;;;;;0.01;100.00;101948.11;1782204;79;21157;-53
2020/12/16 08:22:58;;;;;;;1.47;1.20;;;;;;;0.05;100.00;101944.56;1790848;79;21085;-53
2020/12/16 08:25:26;;;;;;;0.57;0.57;;;;;;;0.05;100.00;101945.42;1794330;79;21209;-53
2020/12/16 08:27:55;;;;;;;0.30;0.30;;;;;;;0.06;100.00;101940.37;1793893;79;21490;-53
2020/12/16 08:30:27;;;;;;;0.20;0.20;;;;;;;0.05;100.00;101937.84;1792098;79;21339;-53
2020/12/16 08:33:16;;;;;;;0.30;0.30;;;;;;;0.05;100.00;101936.02;1777974;79;21142;-53
2020/12/16 08:36:09;;;;;;;0.20;0.20;;;;;;;0.06;100.00;101930.95;1792625;79;21110;-53
2020/12/16 08:38:39;;;;;;;;;;;;;;;0.08;100.00;101934.83;1789123;79;21138;-53
2020/12/16 08:41:09;;;;;;;0.85;0.55;;;;;;;0.08;100.00;101924.91;1772313;78;20275;-53
2020/12/16 08:43:40;;;;;;;0.37;0.37;;;;;;;0.06;100.00;101926.92;1756514;80;21142;-53
2020/12/16 08:46:17;;;;;;;0.60;0.60;;;;;;;0.08;100.00;101926.77;1771719;80;21118;-53
2020/12/16 08:48:59;;;;;;;0.35;0.35;;;;;;;0.11;100.00;101929.09;1721380;81;21146;-53
2020/12/16 08:51:35;;;;;;;0.10;0.10;;;;;;;0.12;100.00;101930.76;1711667;82;21111;-53
2020/12/16 08:54:08;;;;;;;0.20;0.20;;;;;;;0.13;100.00;101929.25;1726541;82;21158;-53
2020/12/16 08:56:43;;;;;;;1.65;0.88;;;;;;;0.13;100.00;101931.11;1722030;82;21683;-53
2020/12/16 08:59:27;;;;;;;0.10;0.10;;;;;;;0.14;100.00;101928.23;1706243;81;21158;-53
2020/12/16 09:02:06;;;;;;;1.17;0.50;;;;;;;0.16;100.00;101932.09;1721654;83;21544;-53
2020/12/16 09:04:39;;;;;;;0.10;0.10;;;;;;;0.18;100.00;101932.77;1712033;83;21174;-53
2020/12/16 09:07:13;;;;;;;0.53;0.42;;;;;;;0.18;100.00;101935.45;1716256;82;21177;-53
2020/12/16 09:09:48;;;;;;;3.95;0.60;;;;;;;0.17;100.00;101927.91;1732557;82;21134;-53
2020/12/16 09:12:20;;;;;;;0.00;0.00;;;;;;;0.16;100.00;101924.87;1720244;82;21122;-53
2020/12/16 09:14:55;;;;;;;0.78;0.78;;;;;;;0.18;100.00;101922.02;1703469;84;21181;-53
2020/12/16 09:17:25;;;;;;;2.67;0.53;;;;;;;0.18;100.00;101924.70;1705175;82;21149;-53
2020/12/16 09:19:53;;;;;;;0.00;0.00;;;;;;;0.19;100.00;101918.30;1719618;82;21141;-53
2020/12/16 09:22:29;;;;;;;0.20;0.20;;;;;;;0.17;100.00;101918.50;1716733;82;21162;-53
2020/12/16 09:24:58;;;;;;;0.30;0.30;;;;;;;0.19;100.00;101926.37;1707618;82;21189;-53
2020/12/16 09:27:25;;;;;;;0.30;0.30;;;;;;;0.21;100.00;101919.80;1705330;82;21141;-53
2020/12/16 09:29:53;;;;;;;0.45;0.45;;;;;;;0.22;100.00;101919.28;1705172;82;21123;-53
2020/12/16 09:32:25;;;;;;;0.20;0.20;;;;;;;0.22;100.00;101920.63;1716520;82;21129;-53
2020/12/16 09:34:54;;;;;;;0.60;0.47;;;;;;;0.21;100.00;101917.63;1730792;82;21527;-53
2020/12/16 09:37:24;;;;;;;1.37;1.30;;;;;;;0.20;100.00;101917.30;1732317;82;21591;-53
2020/12/16 09:40:07;;;;;;;0.13;0.13;;;;;;;0.19;100.00;101917.78;1717794;82;21138;-53
2020/12/16 09:42:36;;;;;;;9.53;1.60;;;;;;;0.17;100.00;101915.81;1730187;81;21122;-54
2020/12/16 09:45:18;;;;;;;0.00;0.00;;;;;;;0.16;100.00;101923.52;1732300;82;21155;-53
2020/12/16 09:47:46;;;;;;;0.37;0.20;;;;;;;0.17;100.00;101921.66;1732210;82;21165;-53
2020/12/16 09:50:14;;;;;;;3.10;2.33;;;;;;;0.18;100.00;101922.02;1730036;82;21541;-54
2020/12/16 09:52:41;;;;;;;0.47;0.47;;;;;;;0.20;100.00;101920.00;1727908;82;21162;-54
2020/12/16 09:55:20;;;;;;;1.12;0.65;;;;;;;0.23;100.00;101922.33;1725125;82;21133;-53
2020/12/16 09:58:05;;;;;;;2.00;0.65;;;;;;;0.24;100.00;101915.92;1714530;82;21129;-54
2020/12/16 10:00:34;;;;;;;7.90;3.08;;;;;;;0.25;100.00;101908.20;1709388;82;21177;-54
2020/12/16 10:03:11;;;;;;;2.30;1.02;;;;;;;0.27;100.00;101905.32;1705424;82;21157;-54
2020/12/16 10:05:39;;;;;;;0.47;0.47;;;;;;;0.27;100.00;101910.19;1730356;82;21129;-54
2020/12/16 10:08:12;;;;;;;6.92;1.05;;;;;;;0.27;100.00;101916.91;1727752;82;21141;-54
2020/12/16 10:10:39;;;;;;;1.15;1.15;;;;;;;0.26;100.00;101908.52;1707879;82;21130;-53
2020/12/16 10:13:07;;;;;;;3.20;1.15;;;;;;;0.26;100.00;101907.18;1732638;82;21126;-54
2020/12/16 10:15:34;;;;;;;3.67;1.77;;;;;;;0.25;99.95;101913.58;1712507;82;21599;-53
2020/12/16 10:18:02;;;;;;;1.50;1.47;;;;;;;0.24;99.90;101915.92;1705029;82;21141;-53
2020/12/16 10:20:30;;;;;;;2.50;1.25;;;;;;;0.23;99.92;101914.77;1716677;82;21157;-53
2020/12/16 10:22:58;;;;;;;1.75;1.65;;;;;;;0.21;99.95;101911.73;1732478;82;21114;-53
2020/12/16 10:25:25;;;;;;;0.90;0.90;;;;;;;0.22;99.84;101913.91;1708580;82;21170;-53
2020/12/16 10:27:53;;;;;;;1.55;0.70;;;;;;;0.21;99.78;101912.25;1703147;84;21178;-53
2020/12/16 10:30:26;;;;;;;0.72;0.55;;;;;;;0.21;99.78;101909.56;1730231;82;21569;-53
2020/12/16 10:32:53;;;;;;;0.72;0.62;;;;;;;0.19;99.62;101904.34;1711880;82;21129;-54
2020/12/16 10:35:23;;;;;;;0.47;0.47;;;;;;;0.18;99.57;101901.34;1706281;82;21730;-54
2020/12/16 10:37:51;;;;;;;3.02;2.15;;;;;;;0.18;99.58;101896.48;1720154;82;21571;-53
2020/12/16 10:40:19;;;;;;;0.10;0.10;;;;;;;0.16;99.54;101891.77;1725713;82;21449;-54
2020/12/16 10:42:47;;;;;;;0.88;0.88;;;;;;;0.16;99.51;101889.09;1705462;82;21177;-54
2020/12/16 10:45:14;;;;;;;0.10;0.10;;;;;;;0.14;99.53;101887.08;1702465;83;21133;-54
2020/12/16 10:47:42;;;;;;;0.80;0.80;;;;;;;0.12;99.48;101881.86;1717982;83;21433;-54
2020/12/16 10:50:10;;;;;;;0.20;0.20;;;;;;;0.12;99.49;101879.69;1707802;83;21125;-53
2020/12/16 10:52:37;;;;;;;1.27;1.17;;;;;;;0.12;99.51;101879.17;1718036;83;21782;-54
2020/12/16 10:55:04;;;;;;;1.40;1.22;;;;;;;0.12;99.52;101873.80;1700526;83;21532;-53
2020/12/16 10:57:32;;;;;;;1.90;1.17;;;;;;;0.13;99.61;101870.63;1699513;83;21783;-54
2020/12/16 11:00:00;;;;;;;0.10;0.10;;;;;;;0.15;99.65;101869.95;1706419;83;21123;-54
2020/12/16 11:02:27;;;;;;;1.50;1.45;;;;;;;0.16;99.61;101861.69;1717580;81;21399;-53
2020/12/16 11:04:54;;;;;;;3.15;1.40;;;;;;;0.16;99.61;101864.89;1725215;83;21675;-54
2020/12/16 11:07:22;;;;;;;1.12;1.05;;;;;;;0.14;99.63;101859.68;1701420;83;21162;-54
2020/12/16 11:09:50;;;;;;;2.98;2.77;;;;;;;0.16;99.71;101860.86;1726993;83;21130;-54
2020/12/16 11:12:17;;;;;;;0.93;0.93;;;;;;;0.17;99.77;101864.73;1724166;82;21103;-54
2020/12/16 11:14:45;;;;;;;0.75;0.75;;;;;;;0.18;99.78;101862.88;1721383;83;21189;-54
2020/12/16 11:17:12;;;;;;;2.52;1.32;;;;;;;0.17;99.69;101863.38;1716229;82;21161;-54
2020/12/16 11:19:40;;;;;;;1.07;0.75;;;;;;;0.15;99.64;101864.58;1717138;83;21147;-54
2020/12/16 11:22:08;;;;;;;3.20;2.45;;;;;;;0.14;99.66;101870.95;1715628;83;21101;-54
2020/12/16 11:24:35;;;;;;;2.80;2.25;;;;;;;0.15;99.65;101874.81;1711252;82;21146;-54
2020/12/16 11:27:03;;;;;;;2.33;1.07;;;;;;;0.16;99.65;101875.64;1699018;83;21153;-54
2020/12/16 11:29:31;;;;;;;0.35;0.35;;;;;;;0.18;99.69;101877.66;1718872;83;21135;-54
2020/12/16 11:32:01;;;;;;;0.00;0.00;;;;;;;0.18;99.65;101873.63;1712515;83;21142;-54
2020/12/16 11:34:28;;;;;;;0.10;0.10;;;;;;;0.17;99.60;101874.62;1706141;83;21103;-53
2020/12/16 11:36:58;;;;;;;0.68;0.68;;;;;;;0.17;99.61;101869.24;1704078;83;21118;-54
2020/12/16 11:39:26;;;;;;;0.40;0.40;;;;;;;0.19;99.65;101868.56;1715281;83;21445;-54
2020/12/16 11:41:55;;;;;;;8.45;0.62;;;;;;;0.20;99.68;101872.44;1704060;83;21591;-54
2020/12/16 11:44:24;;;;;;;3.50;1.20;;;;;;;0.19;99.64;101869.39;1712856;82;21129;-53
2020/12/16 11:46:51;;;;;;;1.65;0.75;;;;;;;0.19;99.64;101868.05;1705167;82;21145;-54
2020/12/16 11:49:21;;;;;;;0.33;0.33;;;;;;;0.18;99.54;101874.45;1703336;84;21152;-54